Time;durP1;ratioP1;P1;durP2;ratioP2;P2;SDS_P1;SDS_P2;PMS_P1;PMS_P2;Temp;Humidity;BMP_temperature;BMP_pressure;BME280_temperature;BME280_humidity;BME280_pressure;Samples;Min_cycle;Max_cycle;Signal;HPM_P1;HPM_P2
2023/01/03 00:01:23;;;;;;;5.60;3.97;;;3.30;83.00;;;;;;4994234;28;20478;-67
2023/01/03 00:03:51;;;;;;;8.23;4.40;;;3.20;83.00;;;;;;5032116;28;20434;-67
2023/01/03 00:06:27;;;;;;;4.57;3.63;;;3.10;82.90;;;;;;5024354;28;20503;-66
2023/01/03 00:08:55;;;;;;;5.27;3.37;;;3.10;82.60;;;;;;5005381;28;20430;-66
2023/01/03 00:14:19;;;;;;;7.10;3.40;;;3.10;82.90;;;;;;4998540;28;20485;-67
2023/01/03 00:16:48;;;;;;;5.67;4.07;;;3.00;82.60;;;;;;5005860;28;20427;-67
2023/01/03 00:19:14;;;;;;;4.70;3.80;;;3.00;82.90;;;;;;5019447;28;20433;-66
2023/01/03 00:21:41;;;;;;;6.63;3.83;;;3.00;83.00;;;;;;4982299;28;20423;-68
2023/01/03 00:24:08;;;;;;;4.80;3.60;;;2.90;83.00;;;;;;4999165;28;20272;-67
2023/01/03 00:26:35;;;;;;;4.27;3.63;;;2.80;83.60;;;;;;5002326;28;20435;-67
2023/01/03 00:29:01;;;;;;;6.00;3.97;;;2.80;83.30;;;;;;5025514;28;20435;-67
2023/01/03 00:31:27;;;;;;;5.83;3.73;;;2.70;83.40;;;;;;4989849;28;20493;-67
2023/01/03 00:33:52;;;;;;;6.70;4.03;;;2.60;83.60;;;;;;4997749;28;20436;-67
2023/01/03 00:36:18;;;;;;;5.10;3.93;;;2.60;83.70;;;;;;4981561;28;20200;-67
2023/01/03 00:38:44;;;;;;;6.40;3.83;;;2.60;83.60;;;;;;4998097;28;20176;-67
2023/01/03 00:41:12;;;;;;;5.23;3.57;;;2.50;83.70;;;;;;5020546;28;20191;-67
2023/01/03 00:43:41;;;;;;;3.93;3.30;;;2.50;83.60;;;;;;5013229;28;20235;-67
2023/01/03 00:46:08;;;;;;;4.47;3.10;;;2.50;83.60;;;;;;5019064;28;20465;-67
2023/01/03 00:48:34;;;;;;;5.17;4.00;;;2.50;83.50;;;;;;5010183;28;20443;-67
2023/01/03 00:51:10;;;;;;;5.73;3.80;;;2.50;84.40;;;;;;5012197;28;20473;-67
2023/01/03 00:53:37;;;;;;;3.97;3.37;;;2.50;84.10;;;;;;5011433;28;20215;-67
2023/01/03 00:56:08;;;;;;;4.30;3.60;;;2.50;84.00;;;;;;5015025;28;20445;-67
2023/01/03 00:58:34;;;;;;;4.43;3.60;;;2.60;84.60;;;;;;5008009;28;20424;-67
2023/01/03 01:01:05;;;;;;;5.40;3.73;;;2.70;84.50;;;;;;5007765;28;20446;-67
2023/01/03 01:03:31;;;;;;;5.40;3.83;;;2.70;85.50;;;;;;5012595;28;20188;-67
2023/01/03 01:05:57;;;;;;;6.20;4.07;;;2.60;85.50;;;;;;5009144;28;20513;-67
2023/01/03 01:08:22;;;;;;;4.33;3.37;;;2.70;85.00;;;;;;5001447;28;20494;-67
2023/01/03 01:11:03;;;;;;;5.90;3.60;;;2.60;84.70;;;;;;5005746;28;20208;-67
2023/01/03 01:13:30;;;;;;;4.50;3.60;;;2.60;84.70;;;;;;5007236;28;20204;-67
2023/01/03 01:16:04;;;;;;;4.33;3.17;;;2.50;84.50;;;;;;5015739;28;20427;-67
2023/01/03 01:18:30;;;;;;;5.83;4.00;;;2.50;84.50;;;;;;5002649;28;20474;-67
2023/01/03 01:20:56;;;;;;;5.33;3.50;;;2.50;84.60;;;;;;5026773;28;20439;-67
2023/01/03 01:23:21;;;;;;;5.37;3.57;;;2.50;84.80;;;;;;5015414;28;20192;-67
2023/01/03 01:25:47;;;;;;;5.67;3.57;;;2.50;85.20;;;;;;5003701;28;20188;-67
2023/01/03 01:28:13;;;;;;;4.90;3.40;;;2.60;84.90;;;;;;5007666;28;20199;-67
2023/01/03 01:30:38;;;;;;;7.00;3.67;;;2.70;85.30;;;;;;4999141;28;20212;-67
2023/01/03 01:33:04;;;;;;;5.60;3.63;;;2.70;84.90;;;;;;5005868;28;20778;-67
2023/01/03 01:35:31;;;;;;;5.50;3.47;;;2.70;84.70;;;;;;5012539;28;20180;-67
2023/01/03 01:37:57;;;;;;;5.13;3.73;;;2.70;84.60;;;;;;4998666;28;20184;-67
2023/01/03 01:40:23;;;;;;;4.30;3.63;;;2.70;84.70;;;;;;5007772;28;20442;-67
2023/01/03 01:45:34;;;;;;;4.80;3.50;;;2.70;85.00;;;;;;5004038;28;20195;-67
2023/01/03 01:48:05;;;;;;;5.77;3.90;;;2.70;85.10;;;;;;5009342;28;20461;-67
2023/01/03 01:50:41;;;;;;;6.60;3.63;;;2.80;85.10;;;;;;5013249;28;20514;-67
2023/01/03 01:53:29;;;;;;;6.27;3.37;;;2.80;85.00;;;;;;5034921;28;20441;-67
2023/01/03 01:56:00;;;;;;;4.77;3.27;;;2.80;84.90;;;;;;4999106;28;20441;-67
2023/01/03 01:58:34;;;;;;;5.23;3.87;;;2.80;85.00;;;;;;5025568;28;20433;-67
2023/01/03 02:00:59;;;;;;;5.83;4.03;;;2.70;84.70;;;;;;5014002;28;20447;-67
2023/01/03 02:03:25;;;;;;;6.87;3.93;;;2.60;84.90;;;;;;5010905;28;20436;-67
2023/01/03 02:05:53;;;;;;;8.33;3.77;;;2.50;84.80;;;;;;5016631;28;20196;-67
2023/01/03 02:08:20;;;;;;;4.90;3.50;;;2.60;84.70;;;;;;5022415;28;20207;-67
2023/01/03 02:11:07;;;;;;;5.07;3.93;;;2.50;84.80;;;;;;5006334;28;20541;-67
2023/01/03 02:13:45;;;;;;;4.07;3.10;;;2.50;84.70;;;;;;5017057;28;20430;-67
2023/01/03 02:16:21;;;;;;;4.43;3.50;;;2.50;84.70;;;;;;5006025;28;20449;-67
2023/01/03 02:19:28;;;;;;;4.97;3.60;;;2.50;84.70;;;;;;4997521;28;20435;-67
2023/01/03 02:22:07;;;;;;;3.73;2.87;;;2.50;84.80;;;;;;4999123;28;20522;-67
2023/01/03 02:24:54;;;;;;;4.43;3.57;;;2.60;85.00;;;;;;5025969;28;20471;-67
2023/01/03 02:27:51;;;;;;;5.53;3.63;;;2.70;85.20;;;;;;5022642;28;20430;-67
2023/01/03 02:30:27;;;;;;;5.67;3.80;;;2.70;85.20;;;;;;5025246;28;20929;-67
2023/01/03 02:33:22;;;;;;;7.83;3.87;;;2.60;84.90;;;;;;5021681;28;20431;-67
2023/01/03 02:36:10;;;;;;;5.87;3.97;;;2.60;84.90;;;;;;5017929;28;20461;-67
2023/01/03 02:38:54;;;;;;;6.27;3.83;;;2.60;84.80;;;;;;5013891;28;20437;-67
2023/01/03 02:41:47;;;;;;;4.90;3.50;;;2.50;85.00;;;;;;5021977;28;20435;-67
2023/01/03 02:44:29;;;;;;;4.43;3.50;;;2.50;84.90;;;;;;5014576;28;20435;-67
2023/01/03 02:47:10;;;;;;;4.23;3.10;;;2.50;84.90;;;;;;5006047;28;20449;-67
2023/01/03 02:49:46;;;;;;;4.33;3.40;;;2.50;85.20;;;;;;5011497;28;20438;-67
2023/01/03 02:52:18;;;;;;;4.40;3.40;;;2.60;85.20;;;;;;5014475;28;20482;-67
2023/01/03 02:55:21;;;;;;;5.43;3.90;;;2.60;85.10;;;;;;5015331;28;20545;-67
2023/01/03 02:57:59;;;;;;;4.17;3.20;;;2.50;85.20;;;;;;4972271;28;20463;-67
2023/01/03 03:00:28;;;;;;;5.67;3.87;;;2.50;85.20;;;;;;4998697;28;20470;-67
2023/01/03 03:02:59;;;;;;;4.67;3.23;;;2.50;85.10;;;;;;4999455;28;20530;-67
2023/01/03 03:05:30;;;;;;;4.63;3.17;;;2.50;85.20;;;;;;5000735;28;20462;-67
2023/01/03 03:07:56;;;;;;;4.57;3.57;;;2.50;85.10;;;;;;4997779;28;20483;-67
2023/01/03 03:13:28;;;;;;;7.10;4.13;;;2.50;85.30;;;;;;5008557;28;20215;-67
2023/01/03 03:16:00;;;;;;;5.23;3.17;;;2.50;85.10;;;;;;5020250;28;20431;-67
2023/01/03 03:18:38;;;;;;;4.73;4.03;;;2.40;84.80;;;;;;5022031;28;20432;-67
2023/01/03 03:26:42;;;;;;;4.40;3.70;;;2.30;85.10;;;;;;4995385;28;20991;-67
2023/01/03 03:29:14;;;;;;;6.73;3.90;;;2.30;85.00;;;;;;5003750;28;20443;-67
2023/01/03 03:31:43;;;;;;;6.27;3.90;;;2.30;85.00;;;;;;5023653;28;20466;-67
2023/01/03 03:34:23;;;;;;;4.87;3.83;;;2.30;85.00;;;;;;4996660;28;20515;-67
2023/01/03 03:37:03;;;;;;;6.33;3.60;;;2.20;85.00;;;;;;5011650;28;20471;-67
2023/01/03 03:45:25;;;;;;;5.67;3.47;;;2.20;85.10;;;;;;4993207;28;20436;-67
2023/01/03 03:48:00;;;;;;;5.43;3.37;;;2.20;85.30;;;;;;5014928;28;20442;-67
2023/01/03 03:50:31;;;;;;;4.40;3.33;;;2.10;85.50;;;;;;5020095;28;20470;-67
2023/01/03 03:53:00;;;;;;;5.07;3.00;;;2.10;85.40;;;;;;5003801;28;20461;-67
2023/01/03 03:55:55;;;;;;;6.53;3.77;;;2.20;85.40;;;;;;5018223;28;20438;-67
2023/01/03 03:58:28;;;;;;;5.23;3.40;;;2.20;85.50;;;;;;5022306;28;20526;-67
2023/01/03 04:00:55;;;;;;;4.80;3.50;;;2.20;85.40;;;;;;5011491;28;20427;-67
2023/01/03 04:03:21;;;;;;;4.60;3.33;;;2.10;85.50;;;;;;4997599;28;20466;-67
2023/01/03 04:06:00;;;;;;;6.63;4.30;;;2.10;85.50;;;;;;4974726;28;20551;-67
2023/01/03 04:08:26;;;;;;;5.90;3.30;;;2.10;85.60;;;;;;5018599;28;20440;-67
2023/01/03 04:11:04;;;;;;;5.17;3.70;;;2.00;85.50;;;;;;5016763;28;20467;-67
2023/01/03 04:13:33;;;;;;;4.53;3.10;;;2.00;85.30;;;;;;4987322;28;20177;-67
2023/01/03 04:15:59;;;;;;;6.30;3.63;;;2.00;85.40;;;;;;5006149;28;20435;-67
2023/01/03 04:18:25;;;;;;;4.87;3.67;;;2.00;85.40;;;;;;5002172;28;20422;-67
2023/01/03 04:20:50;;;;;;;5.97;4.10;;;2.00;85.40;;;;;;5011313;28;20198;-67
2023/01/03 04:23:16;;;;;;;5.60;3.63;;;2.00;85.40;;;;;;4981662;28;20191;-67
2023/01/03 04:25:42;;;;;;;5.53;3.30;;;2.00;85.50;;;;;;4993861;28;20187;-67
2023/01/03 04:28:08;;;;;;;4.43;3.40;;;2.00;85.40;;;;;;4969670;28;20188;-67
2023/01/03 04:30:33;;;;;;;6.33;3.90;;;2.00;85.60;;;;;;4989254;28;20226;-67
2023/01/03 04:33:03;;;;;;;4.27;3.20;;;2.00;85.80;;;;;;5004386;28;20198;-67
2023/01/03 04:35:30;;;;;;;4.90;3.70;;;2.00;85.90;;;;;;5009517;28;20196;-67
2023/01/03 04:37:56;;;;;;;5.37;3.50;;;2.00;85.80;;;;;;4983526;28;20427;-67
2023/01/03 04:40:22;;;;;;;4.83;3.37;;;2.00;85.80;;;;;;4999780;28;20454;-67
2023/01/03 04:45:31;;;;;;;6.47;4.27;;;2.00;86.00;;;;;;5004210;28;20254;-67
2023/01/03 04:47:57;;;;;;;6.20;3.73;;;2.00;87.10;;;;;;4998288;28;20438;-67
2023/01/03 04:50:22;;;;;;;4.77;3.57;;;2.00;87.20;;;;;;5026342;28;20197;-67
2023/01/03 04:52:48;;;;;;;5.87;3.97;;;2.10;86.80;;;;;;4990258;28;20188;-67
2023/01/03 04:55:14;;;;;;;5.53;4.07;;;2.10;86.60;;;;;;4972076;28;20188;-67
2023/01/03 04:57:39;;;;;;;6.30;3.73;;;2.10;86.50;;;;;;5008997;28;20191;-67
2023/01/03 05:00:06;;;;;;;6.07;3.73;;;2.10;86.40;;;;;;5008706;28;20193;-67
2023/01/03 05:02:32;;;;;;;5.33;3.97;;;2.20;86.20;;;;;;5004399;28;20299;-67
2023/01/03 05:04:57;;;;;;;5.50;3.93;;;2.20;86.30;;;;;;5020590;28;20506;-67
2023/01/03 05:07:23;;;;;;;4.83;3.60;;;2.10;86.00;;;;;;4990779;28;20235;-67
2023/01/03 05:09:48;;;;;;;7.70;4.37;;;2.10;86.40;;;;;;4996246;28;20180;-67
2023/01/03 05:12:14;;;;;;;4.27;3.20;;;2.20;86.40;;;;;;4970907;28;20251;-67
2023/01/03 05:14:40;;;;;;;5.57;4.27;;;2.20;86.40;;;;;;4975353;28;20214;-67
2023/01/03 05:17:07;;;;;;;7.10;4.23;;;2.20;86.30;;;;;;4997713;28;20185;-67
2023/01/03 05:19:33;;;;;;;6.57;4.20;;;2.30;86.40;;;;;;5013869;28;20183;-67
2023/01/03 05:27:27;;;;;;;5.80;4.13;;;2.50;86.70;;;;;;5011377;28;20406;-67
2023/01/03 05:29:54;;;;;;;4.87;3.97;;;2.50;86.80;;;;;;4997003;28;20526;-67
2023/01/03 05:32:20;;;;;;;5.20;4.40;;;2.50;86.90;;;;;;4999444;28;20208;-67
2023/01/03 05:34:45;;;;;;;5.77;3.90;;;2.50;86.80;;;;;;5015876;28;20425;-67
2023/01/03 05:37:11;;;;;;;6.20;4.03;;;2.60;86.60;;;;;;4995223;28;20558;-67
2023/01/03 05:39:37;;;;;;;5.40;4.37;;;2.70;86.60;;;;;;4996248;28;20227;-67
2023/01/03 05:42:03;;;;;;;5.90;4.13;;;2.70;86.60;;;;;;4993813;28;20651;-67
2023/01/03 05:44:31;;;;;;;5.53;4.17;;;2.80;86.80;;;;;;5007005;28;20218;-67
2023/01/03 05:46:58;;;;;;;5.10;4.23;;;2.80;86.80;;;;;;5007444;28;20426;-67
2023/01/03 05:49:24;;;;;;;6.80;4.47;;;2.80;86.90;;;;;;5007964;28;20466;-67
2023/01/03 05:51:50;;;;;;;6.17;4.40;;;2.90;86.80;;;;;;5007572;28;20509;-67
2023/01/03 05:54:18;;;;;;;5.23;3.53;;;2.90;86.60;;;;;;4998489;28;20299;-67
2023/01/03 05:56:43;;;;;;;5.10;3.67;;;3.00;86.60;;;;;;4997051;28;20181;-67
2023/01/03 05:59:10;;;;;;;5.33;4.10;;;3.00;86.40;;;;;;5002821;28;20428;-67
2023/01/03 06:01:36;;;;;;;6.60;4.27;;;3.00;86.40;;;;;;5009596;28;20294;-67
2023/01/03 06:04:01;;;;;;;6.10;4.53;;;3.10;86.60;;;;;;5009842;28;20451;-67
2023/01/03 06:06:27;;;;;;;6.97;4.00;;;3.10;86.60;;;;;;5001685;28;20604;-66
2023/01/03 06:08:53;;;;;;;4.07;3.30;;;3.10;86.60;;;;;;4979180;28;20619;-67
2023/01/03 06:11:19;;;;;;;7.27;4.20;;;3.10;86.50;;;;;;4998105;28;20212;-71
2023/01/03 06:13:45;;;;;;;8.67;3.90;;;3.30;86.40;;;;;;5002845;28;20446;-67
2023/01/03 06:19:03;;;;;;;6.83;4.70;;;3.40;86.10;;;;;;4996199;28;20418;-67
2023/01/03 06:21:29;;;;;;;5.00;3.90;;;3.50;86.00;;;;;;4981844;28;20478;-67
2023/01/03 06:23:55;;;;;;;6.70;4.50;;;3.50;85.90;;;;;;5012750;28;20428;-66
2023/01/03 06:26:23;;;;;;;5.53;3.97;;;3.50;85.70;;;;;;5011797;28;20188;-67
2023/01/03 06:28:49;;;;;;;5.50;4.23;;;3.50;85.70;;;;;;5019104;28;20693;-67
2023/01/03 06:31:16;;;;;;;6.73;4.77;;;3.60;85.60;;;;;;4994123;28;20481;-66
2023/01/03 06:33:42;;;;;;;5.87;4.20;;;3.60;85.30;;;;;;5017067;28;20462;-67
2023/01/03 06:36:10;;;;;;;7.13;4.20;;;3.60;85.20;;;;;;5021728;28;20786;-67
2023/01/03 06:38:36;;;;;;;5.83;3.93;;;3.60;85.10;;;;;;5015547;28;20445;-67
2023/01/03 06:41:03;;;;;;;8.27;4.13;;;3.60;85.10;;;;;;5025456;28;20423;-67
2023/01/03 06:43:29;;;;;;;5.87;3.97;;;3.60;84.80;;;;;;5026763;28;20423;-67
2023/01/03 06:54:20;;;;;;;5.73;3.73;;;3.60;85.30;;;;;;5015852;28;20514;-67
2023/01/03 06:56:46;;;;;;;5.97;3.83;;;3.70;85.20;;;;;;5016939;28;20417;-67
2023/01/03 06:59:12;;;;;;;5.63;4.43;;;3.70;85.10;;;;;;5000735;28;20932;-67
2023/01/03 07:01:38;;;;;;;7.13;5.90;;;3.90;85.00;;;;;;5015641;28;20241;-67
2023/01/03 07:04:04;;;;;;;6.03;4.83;;;3.90;85.00;;;;;;5036316;28;20193;-67
2023/01/03 07:06:30;;;;;;;6.30;4.27;;;3.90;85.10;;;;;;5030762;28;20466;-67
2023/01/03 07:08:55;;;;;;;11.10;7.70;;;3.90;85.10;;;;;;5019158;28;20255;-67
2023/01/03 07:11:25;;;;;;;9.27;7.23;;;4.00;85.00;;;;;;5017576;28;20215;-68
2023/01/03 07:13:57;;;;;;;11.40;8.53;;;4.00;85.00;;;;;;5019278;28;20203;-67
2023/01/03 07:16:27;;;;;;;9.87;7.50;;;4.10;85.10;;;;;;5041054;28;20531;-67
2023/01/03 07:18:54;;;;;;;12.63;8.57;;;4.10;85.00;;;;;;5023861;28;20450;-67
2023/01/03 07:21:20;;;;;;;9.30;7.13;;;4.20;85.00;;;;;;5015322;28;20501;-66
2023/01/03 07:23:46;;;;;;;8.73;6.27;;;4.20;85.00;;;;;;5008624;28;20509;-66
2023/01/03 07:26:11;;;;;;;7.50;5.67;;;4.30;84.90;;;;;;5016140;28;20434;-68
2023/01/03 07:28:37;;;;;;;7.63;5.40;;;4.40;85.00;;;;;;5006466;28;20198;-65
2023/01/03 07:31:05;;;;;;;6.90;5.23;;;4.40;84.90;;;;;;5025589;28;20203;-67
2023/01/03 07:33:31;;;;;;;5.77;4.33;;;4.50;84.90;;;;;;5013256;28;20224;-66
2023/01/03 07:36:01;;;;;;;9.33;6.10;;;4.50;84.70;;;;;;5024461;28;20427;-64
2023/01/03 07:38:27;;;;;;;7.87;5.53;;;4.50;84.60;;;;;;5050628;28;20441;-64
2023/01/03 07:41:00;;;;;;;6.07;5.30;;;4.60;84.60;;;;;;5005516;28;20430;-65
2023/01/03 07:43:38;;;;;;;9.03;5.70;;;4.70;84.60;;;;;;5019639;28;20282;-64
2023/01/03 07:46:11;;;;;;;7.73;6.40;;;4.70;84.70;;;;;;5030841;28;20497;-66
2023/01/03 07:48:38;;;;;;;8.57;7.13;;;4.80;84.30;;;;;;5034347;28;20448;-68
2023/01/03 07:51:05;;;;;;;10.53;7.67;;;4.80;84.20;;;;;;5024705;28;20474;-67
2023/01/03 07:53:32;;;;;;;8.87;6.63;;;4.90;84.00;;;;;;5018595;28;20434;-68
2023/01/03 07:56:07;;;;;;;8.23;6.33;;;4.90;84.20;;;;;;5016609;28;20442;-67
2023/01/03 07:58:33;;;;;;;8.93;6.23;;;5.00;84.00;;;;;;5015010;28;20430;-68
2023/01/03 08:01:14;;;;;;;11.03;6.27;;;5.00;83.50;;;;;;5019735;28;20597;-66
2023/01/03 08:03:40;;;;;;;11.60;6.73;;;5.00;83.70;;;;;;5015400;28;20226;-66
2023/01/03 08:06:09;;;;;;;10.37;6.40;;;5.00;83.30;;;;;;5023996;28;20442;-66
2023/01/03 08:08:35;;;;;;;8.57;5.43;;;5.00;83.50;;;;;;5025124;28;20838;-69
2023/01/03 08:13:46;;;;;;;7.80;5.93;;;5.00;83.30;;;;;;5015010;28;20477;-67
2023/01/03 08:16:14;;;;;;;8.97;5.97;;;5.00;83.20;;;;;;5023500;28;20431;-65
2023/01/03 08:18:41;;;;;;;10.40;5.90;;;5.10;83.20;;;;;;5015178;28;20270;-65
2023/01/03 08:21:09;;;;;;;8.17;5.60;;;5.10;82.90;;;;;;5018928;28;20422;-65
2023/01/03 08:23:34;;;;;;;9.00;6.40;;;5.20;83.00;;;;;;5033674;28;20444;-65
2023/01/03 08:26:02;;;;;;;7.07;5.70;;;5.20;83.00;;;;;;5028216;28;20430;-65
2023/01/03 08:28:28;;;;;;;5.37;4.80;;;5.20;82.10;;;;;;5032594;28;20282;-65
2023/01/03 08:30:54;;;;;;;6.83;5.00;;;5.30;82.00;;;;;;5017397;28;20557;-65
2023/01/03 08:33:20;;;;;;;9.40;5.63;;;5.30;81.70;;;;;;5033810;28;20190;-65
2023/01/03 08:35:51;;;;;;;7.60;5.40;;;5.30;81.80;;;;;;5019791;28;20475;-65
2023/01/03 08:38:24;;;;;;;7.03;4.87;;;5.30;81.70;;;;;;5045327;28;20202;-65
2023/01/03 08:40:50;;;;;;;7.97;5.37;;;5.40;81.90;;;;;;5019815;28;20521;-65
2023/01/03 08:43:16;;;;;;;8.27;5.83;;;5.50;81.10;;;;;;5026069;28;20512;-65
2023/01/03 08:45:42;;;;;;;9.47;5.83;;;5.50;81.50;;;;;;5038017;28;20845;-65
2023/01/03 08:48:10;;;;;;;8.30;5.33;;;5.50;81.60;;;;;;5011121;28;20434;-66
2023/01/03 08:50:36;;;;;;;8.17;5.80;;;5.50;81.50;;;;;;5020371;28;20226;-66
2023/01/03 08:53:04;;;;;;;6.17;5.13;;;5.50;82.20;;;;;;5007766;28;20472;-66
2023/01/03 08:55:29;;;;;;;7.80;6.40;;;5.60;82.30;;;;;;5016961;28;20430;-66
2023/01/03 08:57:58;;;;;;;7.37;5.97;;;5.60;82.50;;;;;;5025965;28;20452;-66
2023/01/03 09:00:24;;;;;;;9.70;5.70;;;5.60;82.40;;;;;;5031570;28;20191;-65
2023/01/03 09:02:50;;;;;;;7.17;5.37;;;5.70;82.20;;;;;;5027086;28;20482;-65
2023/01/03 09:05:15;;;;;;;8.17;6.03;;;5.70;81.80;;;;;;5016782;28;20468;-66
2023/01/03 09:07:42;;;;;;;7.23;5.77;;;5.80;81.50;;;;;;5022480;28;20274;-65
2023/01/03 09:10:08;;;;;;;7.83;5.97;;;5.80;81.60;;;;;;5024582;28;20189;-66
2023/01/03 09:12:34;;;;;;;10.63;6.77;;;5.80;81.60;;;;;;5032453;28;20488;-66
2023/01/03 09:15:00;;;;;;;8.80;6.30;;;5.80;81.60;;;;;;5004983;28;20513;-65
2023/01/03 09:17:25;;;;;;;6.27;5.27;;;5.70;81.40;;;;;;5024601;28;20218;-65
2023/01/03 09:19:51;;;;;;;11.53;5.73;;;5.80;81.60;;;;;;5025708;28;20199;-65
2023/01/03 09:22:17;;;;;;;7.60;5.73;;;5.90;81.50;;;;;;5006944;28;20266;-65
2023/01/03 09:24:42;;;;;;;9.07;5.97;;;5.90;81.50;;;;;;5018452;28;20208;-65
2023/01/03 09:27:08;;;;;;;9.93;7.70;;;5.90;81.60;;;;;;5018680;28;20197;-64
2023/01/03 09:29:34;;;;;;;9.17;6.57;;;6.00;82.00;;;;;;5018806;28;20195;-65
2023/01/03 09:32:02;;;;;;;10.27;6.10;;;6.00;81.70;;;;;;5013203;28;20211;-65
2023/01/03 09:34:28;;;;;;;7.40;6.10;;;6.10;81.20;;;;;;5022163;28;20202;-65
2023/01/03 09:36:53;;;;;;;9.77;6.30;;;6.10;80.80;;;;;;5006339;28;20429;-65
2023/01/03 09:39:19;;;;;;;9.70;6.87;;;6.20;80.70;;;;;;5049081;28;20429;-65
2023/01/03 09:43:11;;;;;;;7.80;6.40;;;6.10;80.10;;;;;;5029363;28;20198;-65
2023/01/03 09:44:31;;;;;;;9.73;7.30;;;6.20;79.70;;;;;;5027345;28;20190;-65
2023/01/03 09:46:57;;;;;;;6.63;5.87;;;6.30;80.20;;;;;;5021713;28;20426;-65
2023/01/03 09:49:23;;;;;;;7.77;5.50;;;6.30;80.30;;;;;;5015236;28;20203;-65
2023/01/03 10:03:44;;;;;;;15.80;10.23;;;6.50;80.00;;;;;;5028010;28;20464;-65
2023/01/03 10:06:18;;;;;;;11.30;8.30;;;6.50;79.30;;;;;;5023408;28;20187;-65
2023/01/03 10:08:47;;;;;;;11.97;8.37;;;6.50;79.10;;;;;;5021912;28;20204;-65
2023/01/03 10:11:33;;;;;;;12.10;8.37;;;6.50;79.10;;;;;;5030521;28;20222;-65
2023/01/03 10:14:20;;;;;;;11.53;8.37;;;6.50;78.00;;;;;;5016217;28;20467;-65
2023/01/03 10:17:06;;;;;;;11.00;7.20;;;6.50;78.00;;;;;;5044838;28;20198;-65
2023/01/03 10:19:58;;;;;;;11.87;7.63;;;6.50;77.60;;;;;;5026782;28;20449;-65
2023/01/03 10:22:27;;;;;;;10.90;7.93;;;6.50;77.00;;;;;;5027908;28;20442;-65
2023/01/03 10:25:16;;;;;;;8.63;7.80;;;6.50;77.20;;;;;;5029186;28;20187;-65
2023/01/03 10:27:55;;;;;;;10.90;8.10;;;6.50;77.50;;;;;;5027824;28;20199;-65
2023/01/03 10:30:30;;;;;;;9.60;7.27;;;6.50;78.10;;;;;;5043296;28;20439;-64
2023/01/03 10:33:26;;;;;;;11.93;7.67;;;6.60;77.90;;;;;;5020733;28;20194;-64
2023/01/03 10:35:52;;;;;;;9.10;6.33;;;6.60;77.50;;;;;;5024650;28;20499;-65
2023/01/03 10:38:18;;;;;;;9.77;7.67;;;6.60;78.00;;;;;;5010895;28;20426;-66
2023/01/03 10:40:47;;;;;;;10.90;7.43;;;6.60;77.90;;;;;;5033435;28;20269;-65
2023/01/03 10:43:38;;;;;;;9.67;7.47;;;6.70;78.60;;;;;;5029857;28;20221;-65
2023/01/03 10:46:30;;;;;;;11.77;8.00;;;6.60;78.70;;;;;;5035370;28;20501;-67
2023/01/03 10:49:11;;;;;;;8.27;7.20;;;6.60;78.70;;;;;;5014808;28;20435;-67
2023/01/03 10:51:47;;;;;;;9.10;6.87;;;6.60;78.30;;;;;;5016570;28;20243;-67
2023/01/03 10:54:19;;;;;;;7.80;6.33;;;6.60;78.30;;;;;;5023830;28;20455;-67
2023/01/03 10:56:46;;;;;;;8.03;6.20;;;6.70;78.10;;;;;;5024131;28;20187;-67
2023/01/03 10:59:22;;;;;;;9.27;6.77;;;6.70;78.20;;;;;;5012072;28;20430;-67
2023/01/03 11:02:15;;;;;;;7.83;6.40;;;6.80;77.60;;;;;;5024212;28;20478;-67
2023/01/03 11:04:41;;;;;;;9.23;6.73;;;6.80;78.00;;;;;;5010121;28;20434;-67
2023/01/03 11:07:07;;;;;;;10.50;6.37;;;6.80;77.40;;;;;;5014035;28;20238;-67
2023/01/03 11:09:52;;;;;;;7.43;5.13;;;6.90;77.00;;;;;;5016994;28;20184;-66
2023/01/03 11:12:37;;;;;;;7.70;5.57;;;6.90;77.00;;;;;;5016291;28;20302;-66
2023/01/03 11:15:18;;;;;;;9.97;6.37;;;7.00;76.80;;;;;;5024783;28;20487;-66
2023/01/03 11:18:05;;;;;;;9.57;6.63;;;7.00;76.60;;;;;;5030716;28;20647;-66
2023/01/03 11:20:53;;;;;;;12.30;7.77;;;7.00;76.10;;;;;;5024018;28;20187;-69
2023/01/03 11:23:36;;;;;;;9.83;7.20;;;7.00;75.90;;;;;;5037172;28;20333;-66
2023/01/03 11:26:39;;;;;;;14.90;7.93;;;7.00;75.70;;;;;;5019420;28;20440;-66
2023/01/03 11:29:23;;;;;;;10.70;6.53;;;7.00;75.50;;;;;;5038551;28;20205;-67
2023/01/03 11:32:06;;;;;;;8.57;6.50;;;7.00;75.70;;;;;;5042086;28;20468;-66
2023/01/03 11:35:12;;;;;;;13.83;7.37;;;7.00;75.70;;;;;;5032227;28;20434;-66
2023/01/03 11:38:11;;;;;;;10.37;7.63;;;7.00;75.80;;;;;;5016166;28;20442;-67
2023/01/03 11:41:01;;;;;;;10.13;7.50;;;7.00;76.80;;;;;;5018978;28;20195;-67
2023/01/03 11:43:54;;;;;;;8.47;6.13;;;7.00;76.50;;;;;;5022354;28;20283;-66
2023/01/03 11:46:20;;;;;;;13.33;6.50;;;7.00;76.70;;;;;;5016802;28;20516;-67
2023/01/03 11:48:48;;;;;;;9.50;7.57;;;7.00;76.60;;;;;;5046109;28;20474;-67
2023/01/03 11:51:35;;;;;;;11.17;7.27;;;7.00;76.70;;;;;;5045455;28;20747;-67
2023/01/03 11:54:22;;;;;;;10.47;7.20;;;7.00;76.90;;;;;;5025117;28;20194;-68
2023/01/03 11:56:49;;;;;;;12.20;6.73;;;7.00;77.10;;;;;;5014114;28;20514;-67
2023/01/03 11:59:29;;;;;;;9.83;6.70;;;7.00;77.80;;;;;;5030168;28;20219;-67
2023/01/03 12:02:34;;;;;;;12.40;6.90;;;7.00;77.20;;;;;;5017651;28;20183;-68
2023/01/03 12:05:27;;;;;;;9.43;6.53;;;7.00;76.70;;;;;;5038036;28;20430;-67
2023/01/03 12:08:07;;;;;;;9.97;6.77;;;6.90;77.20;;;;;;5020761;28;20284;-66
2023/01/03 12:11:07;;;;;;;13.90;8.53;;;7.00;77.00;;;;;;5026968;28;20426;-66
2023/01/03 12:13:41;;;;;;;11.83;8.87;;;6.90;76.70;;;;;;5017535;28;20437;-66
2023/01/03 12:16:22;;;;;;;16.50;9.43;;;6.90;77.20;;;;;;5018234;28;20422;-66
2023/01/03 12:18:53;;;;;;;13.13;8.40;;;6.90;77.30;;;;;;5026364;28;20431;-66
2023/01/03 12:21:25;;;;;;;11.03;8.90;;;6.90;77.40;;;;;;5018231;28;20754;-65
2023/01/03 12:24:15;;;;;;;13.70;9.47;;;6.90;77.50;;;;;;5015558;28;20438;-66
2023/01/03 12:26:43;;;;;;;13.03;8.70;;;6.90;77.60;;;;;;5012202;28;20526;-66
2023/01/03 12:29:27;;;;;;;15.40;11.17;;;7.00;77.10;;;;;;5017470;28;20456;-67
2023/01/03 12:32:00;;;;;;;17.47;11.97;;;7.00;76.90;;;;;;5012559;28;20485;-67
2023/01/03 12:34:49;;;;;;;15.03;11.33;;;7.00;76.60;;;;;;5017653;28;20418;-67
2023/01/03 12:37:28;;;;;;;21.07;13.10;;;6.90;76.60;;;;;;5027394;28;20434;-67
2023/01/03 12:40:20;;;;;;;18.10;12.43;;;7.00;76.50;;;;;;5024147;28;20452;-68
2023/01/03 12:43:24;;;;;;;17.73;12.17;;;6.90;76.80;;;;;;5027530;28;20198;-69
2023/01/03 12:46:10;;;;;;;19.63;13.27;;;6.90;76.60;;;;;;4991542;28;20199;-68
2023/01/03 12:48:41;;;;;;;19.67;14.77;;;6.90;76.50;;;;;;4996830;28;20436;-68
2023/01/03 12:51:07;;;;;;;21.83;13.80;;;6.80;77.10;;;;;;5008380;28;20466;-67
2023/01/03 12:53:42;;;;;;;21.40;13.83;;;6.80;77.20;;;;;;5020825;28;20220;-69
2023/01/03 12:56:07;;;;;;;20.13;14.13;;;6.80;77.20;;;;;;5026451;28;20179;-68
2023/01/03 12:59:15;;;;;;;19.00;13.30;;;6.70;77.50;;;;;;5011784;28;20777;-65
2023/01/03 13:01:59;;;;;;;18.47;13.10;;;6.70;77.40;;;;;;5031423;28;20281;-68
2023/01/03 13:04:28;;;;;;;20.13;13.57;;;6.80;77.70;;;;;;5018534;28;20432;-65
2023/01/03 13:07:18;;;;;;;18.83;13.37;;;6.80;78.00;;;;;;5024811;28;21012;-67
2023/01/03 13:09:54;;;;;;;18.43;13.23;;;6.80;78.00;;;;;;5029544;28;20561;-68
2023/01/03 13:12:27;;;;;;;20.90;14.17;;;6.80;78.00;;;;;;5031116;28;20885;-67
2023/01/03 13:14:56;;;;;;;21.40;14.03;;;6.80;78.00;;;;;;5027575;28;20437;-70
2023/01/03 13:17:25;;;;;;;18.47;13.13;;;6.80;78.00;;;;;;5029116;28;20468;-69
2023/01/03 13:20:16;;;;;;;15.93;12.23;;;6.80;77.90;;;;;;5026270;28;20422;-69
2023/01/03 13:22:47;;;;;;;17.50;13.10;;;6.80;78.10;;;;;;5028237;28;20203;-69
2023/01/03 13:25:33;;;;;;;20.30;13.20;;;6.80;77.80;;;;;;5024914;28;20433;-70
2023/01/03 13:28:19;;;;;;;21.33;14.80;;;6.80;78.00;;;;;;5033113;28;20436;-69
2023/01/03 13:30:45;;;;;;;21.23;15.13;;;6.80;77.70;;;;;;5017122;28;20433;-69
2023/01/03 13:33:11;;;;;;;22.73;15.50;;;6.80;78.00;;;;;;5032056;28;20481;-68
2023/01/03 13:35:42;;;;;;;25.90;15.40;;;6.80;78.00;;;;;;5031096;28;20199;-68
2023/01/03 13:38:34;;;;;;;23.03;14.53;;;6.70;78.00;;;;;;5031131;28;20253;-67
2023/01/03 13:41:36;;;;;;;23.63;16.03;;;6.80;78.00;;;;;;5018311;28;20433;-69
2023/01/03 13:44:08;;;;;;;22.67;15.43;;;6.60;78.50;;;;;;5023095;28;20920;-69
2023/01/03 13:46:34;;;;;;;24.03;14.50;;;6.70;78.70;;;;;;5027697;28;20843;-71
2023/01/03 13:49:03;;;;;;;27.63;17.43;;;6.80;78.70;;;;;;5017113;28;20493;-69
2023/01/03 13:51:32;;;;;;;29.60;19.60;;;6.80;78.60;;;;;;5027468;28;20273;-68
2023/01/03 13:53:59;;;;;;;29.07;19.90;;;6.90;77.90;;;;;;5028256;28;20441;-68
2023/01/03 13:56:48;;;;;;;23.37;16.50;;;6.90;77.00;;;;;;5027495;28;20441;-69
2023/01/03 13:59:14;;;;;;;19.87;14.60;;;6.90;77.50;;;;;;5015120;28;20427;-68
2023/01/03 14:01:44;;;;;;;25.03;16.00;;;7.00;76.80;;;;;;5022915;28;20441;-69
2023/01/03 14:04:25;;;;;;;23.53;17.10;;;7.00;77.10;;;;;;5024192;28;20225;-68
2023/01/03 14:07:24;;;;;;;24.43;17.00;;;7.00;77.50;;;;;;5013900;28;20475;-70
2023/01/03 14:10:14;;;;;;;23.03;15.10;;;7.00;77.40;;;;;;5029395;28;20426;-69
2023/01/03 14:12:54;;;;;;;24.80;15.93;;;7.00;77.40;;;;;;5026765;28;20529;-70
2023/01/03 14:15:24;;;;;;;19.83;14.20;;;7.00;77.60;;;;;;5024010;28;20431;-69